Airfield :
LOGIN :

Register | Disclaimer

   EN    FR    IT 

 










Legend :    VFR   Marginal VFR   IFR   Intensive IFR   Very Intensive IFR
Visi :
Ceiling :
>= 8 km
>= 3000ft
5 to 8 km
1000 to 3000 ft
1500m to 5 km
500 to 1000 ft
800 to 1500m
200 to 500 ft
< 800m
< 200 ft
Symbols :   Thunderstorms  Fog  Heavy snow  Heavy precipitations  Wind > 20 kt
SIGMETs :     Misc.  Thunderstorms  Icing  Turbulence  Mountain Waves  Volcanic Ashes







- Airport Elevation : 13 ft
- IATA code : CAG


LIEE - Cagliari Elmas

CURRENT METAR :
  • 301620Z 13010KT CAVOK 19/11 Q1013

EXPIRED METARs :
  • 301550Z 12012KT CAVOK 18/10 Q1013
  • 301520Z 12012KT CAVOK 18/10 Q1013
  • 301450Z 13013KT CAVOK 18/11 Q1013
  • 301420Z 14012KT CAVOK 19/11 Q1013

TAF TAF LIEE
Valid from the 30 at 12:00 until the 01 at 12:00 UTC


301100Z 3012/0112 22012KT CAVOK
BECMG 3017/3019 32010KT
BECMG 0108/0110 16012KT
No reported NOTAMs for that airfield.



MET'MAP, your aeronautical weather chart ! - Copyright ORBIFLY December 2007 - Disclaimer

ORBIFLY MET'MAP TEAM :

Programming & Development : Alexandra Zaïnal
Concept & Development : Baudouin d'Aumeries
Co-Development & Prog : Marc-Olivier Méhu
Technical & hardware support : Manuel Goepfert

Contact : metmap@orbifly.com




SOURCES & CREDITS :

   NOAA